createdAt,value
2018-02-10T00:02:20.229Z,-3.90
2018-02-10T00:04:47.797Z,-3.90
2018-02-10T00:07:15.359Z,-4.00
2018-02-10T00:09:42.958Z,-4.00
2018-02-10T00:12:10.550Z,-3.90
2018-02-10T00:14:38.119Z,-3.90
2018-02-10T00:17:05.683Z,-3.90
2018-02-10T00:19:33.257Z,-3.90
2018-02-10T00:22:01.576Z,-3.90
2018-02-10T00:24:29.148Z,-3.90
2018-02-10T00:26:57.473Z,-3.80
2018-02-10T00:29:25.126Z,-3.80
2018-02-10T00:31:53.476Z,-3.70
2018-02-10T00:34:21.048Z,-3.70
2018-02-10T00:36:48.603Z,-3.60
2018-02-10T00:39:16.945Z,-3.60
2018-02-10T00:41:44.497Z,-3.60
2018-02-10T00:44:12.087Z,-3.60
2018-02-10T00:46:39.649Z,-3.60
2018-02-10T00:49:08.006Z,-3.50
2018-02-10T00:51:36.007Z,-3.50
2018-02-10T00:54:03.582Z,-3.50
2018-02-10T00:56:31.144Z,-3.50
2018-02-10T00:58:58.736Z,-3.50
2018-02-10T01:01:26.288Z,-3.50
2018-02-10T01:03:53.861Z,-3.40
2018-02-10T01:06:21.712Z,-3.40
2018-02-10T01:08:49.270Z,-3.50
2018-02-10T01:11:16.841Z,-3.40
2018-02-10T01:13:45.169Z,-3.40
2018-02-10T01:16:12.741Z,-3.40
2018-02-10T01:18:40.297Z,-3.40
2018-02-10T01:21:08.637Z,-3.40
2018-02-10T01:23:36.192Z,-3.40
2018-02-10T01:26:04.537Z,-3.40
2018-02-10T01:28:32.096Z,-3.40
2018-02-10T01:30:59.676Z,-3.40
2018-02-10T01:33:27.229Z,-3.40
2018-02-10T01:35:54.804Z,-3.40
2018-02-10T01:38:22.364Z,-3.40
2018-02-10T01:40:49.961Z,-3.40
2018-02-10T01:43:17.533Z,-3.40
2018-02-10T01:45:45.108Z,-3.40
2018-02-10T01:48:12.691Z,-3.40
2018-02-10T01:50:40.255Z,-3.40
2018-02-10T01:53:07.838Z,-3.40
2018-02-10T01:55:35.392Z,-3.30
2018-02-10T01:58:03.738Z,-3.40
2018-02-10T02:00:31.304Z,-3.40
2018-02-10T02:02:58.880Z,-3.40
2018-02-10T02:05:27.192Z,-3.40
2018-02-10T02:07:54.770Z,-3.40
2018-02-10T02:10:22.319Z,-3.30
2018-02-10T02:12:49.888Z,-3.30
2018-02-10T02:15:17.449Z,-3.30
2018-02-10T02:17:45.048Z,-3.30
2018-02-10T02:20:12.611Z,-3.30
2018-02-10T02:22:40.200Z,-3.30
2018-02-10T02:25:07.760Z,-3.30
2018-02-10T02:27:35.329Z,-3.30
2018-02-10T02:30:03.677Z,-3.30
2018-02-10T02:32:31.239Z,-3.30
2018-02-10T02:34:58.818Z,-3.30
2018-02-10T02:37:26.374Z,-3.30
2018-02-10T02:39:54.733Z,-3.30
2018-02-10T02:42:22.291Z,-3.30
2018-02-10T02:44:50.557Z,-3.30
2018-02-10T02:47:18.118Z,-3.30
2018-02-10T02:49:45.689Z,-3.30
2018-02-10T02:52:13.252Z,-3.30
2018-02-10T02:54:40.820Z,-3.30
2018-02-10T02:57:08.368Z,-3.30
2018-02-10T02:59:35.943Z,-3.40
2018-02-10T03:02:03.492Z,-3.40
2018-02-10T03:04:31.084Z,-3.30
2018-02-10T03:06:58.643Z,-3.30
2018-02-10T03:09:26.232Z,-3.30
2018-02-10T03:11:53.775Z,-3.30
2018-02-10T03:14:21.323Z,-3.30
2018-02-10T03:16:48.896Z,-3.30
2018-02-10T03:19:16.462Z,-3.40
2018-02-10T03:21:44.043Z,-3.30
2018-02-10T03:24:11.591Z,-3.30
2018-02-10T03:26:39.155Z,-3.30
2018-02-10T03:29:06.712Z,-3.40
2018-02-10T03:31:34.279Z,-3.30
2018-02-10T03:34:01.826Z,-3.40
2018-02-10T03:36:29.403Z,-3.40
2018-02-10T03:38:57.023Z,-3.30
2018-02-10T03:41:25.514Z,-3.30
2018-02-10T03:43:53.098Z,-3.30
2018-02-10T03:46:20.687Z,-3.30
2018-02-10T03:48:49.004Z,-3.40
2018-02-10T03:51:17.314Z,-3.50
2018-02-10T03:53:44.909Z,-3.30
2018-02-10T03:56:12.455Z,-3.40
2018-02-10T03:58:40.796Z,-3.40
2018-02-10T04:01:08.351Z,-3.40
2018-02-10T04:03:36.734Z,-3.40
2018-02-10T04:06:04.287Z,-3.40
2018-02-10T04:08:31.858Z,-3.30
2018-02-10T04:10:59.407Z,-3.40
2018-02-10T04:13:27.739Z,-3.30
2018-02-10T04:15:55.288Z,-3.40
2018-02-10T04:18:23.619Z,-3.40
2018-02-10T04:20:51.172Z,-3.40
2018-02-10T04:23:19.519Z,-3.40
2018-02-10T04:25:47.072Z,-3.40
2018-02-10T04:28:14.659Z,-3.40
2018-02-10T04:30:42.243Z,-3.40
2018-02-10T04:33:09.788Z,-3.40
2018-02-10T04:35:37.359Z,-3.40
2018-02-10T04:38:04.911Z,-3.40
2018-02-10T04:40:32.474Z,-3.40
2018-02-10T04:43:00.787Z,-3.40
2018-02-10T04:45:28.361Z,-3.50
2018-02-10T04:47:55.935Z,-3.40
2018-02-10T04:50:24.283Z,-3.50
2018-02-10T04:52:51.855Z,-3.50
2018-02-10T04:55:19.422Z,-3.50
2018-02-10T04:57:46.967Z,-3.50
2018-02-10T05:00:14.543Z,-3.50
2018-02-10T05:02:42.096Z,-3.50
2018-02-10T05:05:09.682Z,-3.50
2018-02-10T05:07:37.231Z,-3.50
2018-02-10T05:10:05.564Z,-3.50
2018-02-10T05:12:33.125Z,-3.50
2018-02-10T05:15:00.686Z,-3.50
2018-02-10T05:17:28.236Z,-3.50
2018-02-10T05:19:55.855Z,-3.50
2018-02-10T05:22:23.399Z,-3.50
2018-02-10T05:24:50.935Z,-3.50
2018-02-10T05:27:19.314Z,-3.50
2018-02-10T05:29:46.906Z,-3.50
2018-02-10T05:32:14.481Z,-3.50
2018-02-10T05:34:42.035Z,-3.50
2018-02-10T05:37:09.603Z,-3.50
2018-02-10T05:39:37.156Z,-3.50
2018-02-10T05:42:05.503Z,-3.50
2018-02-10T05:44:33.047Z,-3.50
2018-02-10T05:47:00.624Z,-3.50
2018-02-10T05:49:28.944Z,-3.50
2018-02-10T05:51:56.509Z,-3.50
2018-02-10T05:54:24.825Z,-3.50
2018-02-10T05:56:53.184Z,-3.40
2018-02-10T05:59:20.799Z,-3.50
2018-02-10T06:01:48.327Z,-3.50
2018-02-10T06:04:15.890Z,-3.50
2018-02-10T06:06:43.443Z,-3.40
2018-02-10T06:09:11.011Z,-3.50
2018-02-10T06:11:38.559Z,-3.50
2018-02-10T06:14:06.126Z,-3.50
2018-02-10T06:16:33.668Z,-3.50
2018-02-10T06:19:01.245Z,-3.50
2018-02-10T06:21:28.793Z,-3.50
2018-02-10T06:23:56.359Z,-3.50
2018-02-10T06:26:23.919Z,-3.50
2018-02-10T06:28:52.261Z,-3.50
2018-02-10T06:31:19.824Z,-3.50
2018-02-10T06:33:47.398Z,-3.50
2018-02-10T06:36:15.736Z,-3.50
2018-02-10T06:38:43.297Z,-3.50
2018-02-10T06:41:10.894Z,-3.40
2018-02-10T06:43:38.452Z,-3.50
2018-02-10T06:46:06.793Z,-3.40
2018-02-10T06:48:35.111Z,-3.40
2018-02-10T06:51:02.684Z,-3.50
2018-02-10T06:53:30.231Z,-3.40
2018-02-10T06:55:58.568Z,-3.40
2018-02-10T06:58:26.120Z,-3.40
2018-02-10T07:00:53.712Z,-3.40
2018-02-10T07:03:21.265Z,-3.40
2018-02-10T07:05:48.830Z,-3.40
2018-02-10T07:08:16.386Z,-3.40
2018-02-10T07:10:43.979Z,-3.40
2018-02-10T07:13:11.532Z,-3.40
2018-02-10T07:15:39.136Z,-3.40
2018-02-10T07:18:06.707Z,-3.30
2018-02-10T07:20:34.258Z,-3.30
2018-02-10T07:23:02.599Z,-3.30
2018-02-10T07:25:30.142Z,-3.30
2018-02-10T07:27:58.483Z,-3.20
2018-02-10T07:30:26.050Z,-3.20
2018-02-10T07:32:54.379Z,-3.20
2018-02-10T07:35:21.935Z,-3.20
2018-02-10T07:37:49.513Z,-3.10
2018-02-10T07:40:17.163Z,-3.10
2018-02-10T07:42:44.737Z,-3.10
2018-02-10T07:45:12.287Z,-3.10
2018-02-10T07:47:39.866Z,-3.10
2018-02-10T07:50:07.419Z,-3.00
2018-02-10T07:52:35.754Z,-3.00
2018-02-10T07:55:03.324Z,-3.00
2018-02-10T07:57:30.896Z,-2.90
2018-02-10T07:59:59.228Z,-2.90
2018-02-10T08:02:26.778Z,-2.90
2018-02-10T08:04:55.114Z,-2.80
2018-02-10T08:07:22.666Z,-2.80
2018-02-10T08:09:50.266Z,-2.70
2018-02-10T08:12:18.586Z,-2.60
2018-02-10T08:14:46.148Z,-2.60
2018-02-10T08:17:13.694Z,-2.60
2018-02-10T08:19:41.259Z,-2.60
2018-02-10T08:22:08.815Z,-2.50
2018-02-10T08:24:36.382Z,-2.50
2018-02-10T08:27:04.699Z,-2.50
2018-02-10T08:29:32.250Z,-2.50
2018-02-10T08:31:59.819Z,-2.40
2018-02-10T08:34:27.371Z,-2.40
2018-02-10T08:36:54.938Z,-2.30
2018-02-10T08:39:22.480Z,-2.30
2018-02-10T08:41:50.056Z,-2.30
2018-02-10T08:44:17.603Z,-2.30
2018-02-10T08:46:45.191Z,-2.30
2018-02-10T08:49:12.741Z,-2.30
2018-02-10T08:51:41.100Z,-2.30
2018-02-10T08:54:08.647Z,-2.30
2018-02-10T08:56:36.211Z,-2.30
2018-02-10T08:59:04.527Z,-2.20
2018-02-10T09:01:32.146Z,-2.20
2018-02-10T09:03:59.679Z,-2.10
2018-02-10T09:06:28.011Z,-2.10
2018-02-10T09:08:55.563Z,-2.10
2018-02-10T09:11:23.919Z,-2.10
2018-02-10T09:13:51.464Z,-2.10
2018-02-10T09:16:19.036Z,-2.00
2018-02-10T09:18:47.374Z,-1.90
2018-02-10T09:21:14.922Z,-1.90
2018-02-10T09:23:43.260Z,-1.80
2018-02-10T09:26:10.832Z,-1.90
2018-02-10T09:28:38.427Z,-1.80
2018-02-10T09:31:05.995Z,-1.80
2018-02-10T09:33:33.569Z,-1.80
2018-02-10T09:36:01.142Z,-1.70
2018-02-10T09:38:29.470Z,-1.60
2018-02-10T09:40:57.022Z,-1.70
2018-02-10T09:43:25.503Z,-1.50
2018-02-10T09:45:53.099Z,-1.60
2018-02-10T09:48:21.451Z,-1.40
2018-02-10T09:50:49.000Z,-1.40
2018-02-10T09:53:17.345Z,-1.30
2018-02-10T09:55:44.939Z,-1.30
2018-02-10T09:58:12.521Z,-1.10
2018-02-10T10:00:40.067Z,-1.00
2018-02-10T10:03:08.420Z,-0.90
2018-02-10T10:05:35.963Z,-0.90
2018-02-10T10:08:03.512Z,-0.90
2018-02-10T10:10:31.071Z,-0.80
2018-02-10T10:12:58.625Z,-0.80
2018-02-10T10:15:27.117Z,-0.70
2018-02-10T10:17:55.443Z,-0.60
2018-02-10T10:20:23.006Z,-0.60
2018-02-10T10:22:50.579Z,-0.50
2018-02-10T10:25:18.912Z,-0.50
2018-02-10T10:27:46.464Z,-0.50
2018-02-10T10:30:14.805Z,-0.60
2018-02-10T10:32:42.347Z,-0.60
2018-02-10T10:35:10.714Z,-0.60
2018-02-10T10:37:38.270Z,-0.60
2018-02-10T10:40:05.832Z,-0.50
2018-02-10T10:42:33.409Z,-0.40
2018-02-10T10:45:01.715Z,-0.30
2018-02-10T10:47:29.283Z,-0.30
2018-02-10T10:49:56.823Z,-0.40
2018-02-10T10:52:24.391Z,-0.40
2018-02-10T10:54:51.946Z,-0.40
2018-02-10T10:57:20.328Z,-0.50
2018-02-10T10:59:47.848Z,-0.60
2018-02-10T11:02:15.432Z,-0.60
2018-02-10T11:04:42.984Z,-0.50
2018-02-10T11:07:11.334Z,-0.40
2018-02-10T11:09:38.895Z,-0.40
2018-02-10T11:12:06.458Z,-0.30
2018-02-10T11:14:34.780Z,-0.30
2018-02-10T11:17:02.343Z,-0.30
2018-02-10T11:19:30.667Z,-0.20
2018-02-10T11:21:58.254Z,-0.30
2018-02-10T11:24:25.797Z,-0.20
2018-02-10T11:26:53.348Z,-0.10
2018-02-10T11:29:21.676Z,0.00
2018-02-10T11:31:49.220Z,0.00
2018-02-10T11:34:16.775Z,0.10
2018-02-10T11:36:45.087Z,0.20
2018-02-10T11:39:12.651Z,0.10
2018-02-10T11:41:40.985Z,0.20
2018-02-10T11:44:08.721Z,0.20
2018-02-10T11:46:36.263Z,0.30
2018-02-10T11:49:03.888Z,0.60
2018-02-10T11:51:31.404Z,0.70
2018-02-10T11:53:59.735Z,1.00
2018-02-10T11:56:27.300Z,1.00
2018-02-10T11:58:54.887Z,1.10
2018-02-10T12:01:23.757Z,1.20
2018-02-10T12:03:51.389Z,1.10
2018-02-10T12:06:19.330Z,1.20
2018-02-10T12:08:47.019Z,1.10
2018-02-10T12:11:14.592Z,1.10
2018-02-10T12:13:42.293Z,1.20
2018-02-10T12:16:09.856Z,1.20
2018-02-10T12:18:37.399Z,1.20
2018-02-10T12:21:04.962Z,1.30
2018-02-10T12:23:32.498Z,1.40
2018-02-10T12:26:00.061Z,1.40
2018-02-10T12:28:27.623Z,1.50
2018-02-10T12:30:55.942Z,1.70
2018-02-10T12:33:24.248Z,1.90
2018-02-10T12:35:51.823Z,1.80
2018-02-10T12:38:19.375Z,1.90
2018-02-10T12:40:46.971Z,2.00
2018-02-10T12:43:14.518Z,2.00
2018-02-10T12:45:42.064Z,1.90
2018-02-10T12:48:19.820Z,1.90
2018-02-10T12:50:47.360Z,2.00
2018-02-10T12:53:15.683Z,2.30
2018-02-10T12:55:43.229Z,2.30
2018-02-10T12:58:10.795Z,2.40
2018-02-10T13:00:38.362Z,2.40
2018-02-10T13:03:05.930Z,2.50
2018-02-10T13:05:33.484Z,2.50
2018-02-10T13:08:01.814Z,2.30
2018-02-10T13:10:29.632Z,2.30
2018-02-10T13:12:57.222Z,2.20
2018-02-10T13:15:24.963Z,2.10
2018-02-10T13:17:52.546Z,2.10
2018-02-10T13:20:20.091Z,2.20
2018-02-10T13:22:47.647Z,2.40
2018-02-10T13:25:15.182Z,2.60
2018-02-10T13:27:42.742Z,2.90
2018-02-10T13:30:10.302Z,3.10
2018-02-10T13:32:37.851Z,3.10
2018-02-10T13:35:05.415Z,3.00
2018-02-10T13:37:33.732Z,3.10
2018-02-10T13:40:01.299Z,3.00
2018-02-10T13:42:29.611Z,3.20
2018-02-10T13:44:57.942Z,3.20
2018-02-10T13:47:25.474Z,3.20
2018-02-10T13:49:53.085Z,3.20
2018-02-10T13:52:21.432Z,2.70
2018-02-10T13:54:48.997Z,2.70
2018-02-10T13:57:16.540Z,2.50
2018-02-10T13:59:44.863Z,2.40
2018-02-10T14:02:13.229Z,2.40
2018-02-10T14:04:40.787Z,2.50
2018-02-10T14:07:08.328Z,2.40
2018-02-10T14:09:35.891Z,2.40
2018-02-10T14:12:04.209Z,2.40
2018-02-10T14:14:32.545Z,2.20
2018-02-10T14:17:00.098Z,2.20
2018-02-10T14:19:28.419Z,2.10
2018-02-10T14:21:55.962Z,2.00
2018-02-10T14:24:23.499Z,1.90
2018-02-10T14:26:51.828Z,1.60
2018-02-10T14:29:19.437Z,1.50
2018-02-10T14:31:47.759Z,1.30
2018-02-10T14:34:15.309Z,1.30
2018-02-10T14:36:42.867Z,1.20
2018-02-10T14:39:10.417Z,1.20
2018-02-10T14:41:37.982Z,1.00
2018-02-10T14:44:05.546Z,0.90
2018-02-10T14:46:33.103Z,0.90
2018-02-10T14:49:00.652Z,0.80
2018-02-10T14:51:28.219Z,0.70
2018-02-10T14:53:56.527Z,0.60
2018-02-10T14:56:24.110Z,0.60
2018-02-10T14:58:52.419Z,0.70
2018-02-10T15:01:20.015Z,0.70
2018-02-10T15:03:48.171Z,0.70
2018-02-10T15:06:15.847Z,0.70
2018-02-10T15:08:43.394Z,0.70
2018-02-10T15:11:11.209Z,0.70
2018-02-10T15:13:38.966Z,0.60
2018-02-10T15:16:06.512Z,0.60
2018-02-10T15:18:34.839Z,0.50
2018-02-10T15:21:02.419Z,0.50
2018-02-10T15:23:29.984Z,0.50
2018-02-10T15:25:58.297Z,0.40
2018-02-10T15:28:26.641Z,0.30
2018-02-10T15:31:06.155Z,0.30
2018-02-10T15:33:46.152Z,0.20
2018-02-10T15:36:13.701Z,0.20
2018-02-10T15:38:41.267Z,0.10
2018-02-10T15:41:08.804Z,0.00
2018-02-10T15:43:36.364Z,0.00
2018-02-10T15:46:04.686Z,-0.20
2018-02-10T15:48:32.260Z,-0.20
2018-02-10T15:51:00.589Z,-0.20
2018-02-10T15:53:28.262Z,-0.30
2018-02-10T15:55:55.805Z,-0.30
2018-02-10T15:58:23.360Z,-0.30
2018-02-10T16:00:50.935Z,-0.30
2018-02-10T16:03:18.498Z,-0.30
2018-02-10T16:05:46.077Z,-0.40
2018-02-10T16:08:13.624Z,-0.40
2018-02-10T16:10:41.200Z,-0.50
2018-02-10T16:13:08.751Z,-0.40
2018-02-10T16:15:36.331Z,-0.50
2018-02-10T16:18:03.979Z,-0.50
2018-02-10T16:20:31.560Z,-0.60
2018-02-10T16:22:59.102Z,-0.60
2018-02-10T16:25:26.680Z,-0.60
2018-02-10T16:27:54.232Z,-0.60
2018-02-10T16:30:22.543Z,-0.70
2018-02-10T16:32:50.151Z,-0.70
2018-02-10T16:35:17.713Z,-0.70
2018-02-10T16:37:45.292Z,-0.70
2018-02-10T16:40:12.856Z,-0.70
2018-02-10T16:42:41.193Z,-0.70
2018-02-10T16:45:08.744Z,-0.70
2018-02-10T16:47:37.083Z,-0.70
2018-02-10T16:50:04.670Z,-0.70
2018-02-10T16:52:32.242Z,-0.70
2018-02-10T16:54:59.909Z,-0.70
2018-02-10T16:57:27.601Z,-0.80
2018-02-10T16:59:55.914Z,-0.70
2018-02-10T17:02:23.488Z,-0.70
2018-02-10T17:04:51.807Z,-0.70
2018-02-10T17:07:19.379Z,-0.80
2018-02-10T17:09:46.936Z,-0.70
2018-02-10T17:12:14.532Z,-0.70
2018-02-10T17:14:42.221Z,-0.70
2018-02-10T17:17:09.804Z,-0.70
2018-02-10T17:19:38.770Z,-0.70
2018-02-10T17:22:06.383Z,-0.80
2018-02-10T17:24:34.012Z,-0.80
2018-02-10T17:27:01.568Z,-0.80
2018-02-10T17:29:30.068Z,-0.80
2018-02-10T17:31:57.635Z,-0.80
2018-02-10T17:34:25.236Z,-0.80
2018-02-10T17:36:52.782Z,-0.80
2018-02-10T17:39:20.352Z,-0.70
2018-02-10T17:41:47.895Z,-0.70
2018-02-10T17:44:16.235Z,-0.60
2018-02-10T17:46:43.788Z,-0.70
2018-02-10T17:49:12.154Z,-0.70
2018-02-10T17:51:39.703Z,-0.70
2018-02-10T17:54:12.444Z,-0.70
2018-02-10T17:56:40.191Z,-0.70
2018-02-10T17:59:07.788Z,-0.60
2018-02-10T18:01:35.335Z,-0.70
2018-02-10T18:04:02.910Z,-0.60
2018-02-10T18:06:30.458Z,-0.70
2018-02-10T18:08:58.015Z,-0.70
2018-02-10T18:11:25.589Z,-0.70
2018-02-10T18:13:53.896Z,-0.70
2018-02-10T18:16:21.465Z,-0.70
2018-02-10T18:18:49.780Z,-0.80
2018-02-10T18:21:18.139Z,-0.80
2018-02-10T18:23:45.682Z,-0.80
2018-02-10T18:26:13.289Z,-0.80
2018-02-10T18:28:40.848Z,-0.80
2018-02-10T18:31:08.408Z,-0.80
2018-02-10T18:33:36.735Z,-0.80
2018-02-10T18:36:04.305Z,-0.80
2018-02-10T18:38:31.857Z,-0.80
2018-02-10T18:40:59.436Z,-0.80
2018-02-10T18:43:27.007Z,-0.80
2018-02-10T18:45:54.551Z,-0.80
2018-02-10T18:48:22.120Z,-0.70
2018-02-10T18:50:50.435Z,-0.70
2018-02-10T18:53:18.016Z,-0.70
2018-02-10T18:55:45.555Z,-0.70
2018-02-10T18:58:14.103Z,-0.70
2018-02-10T19:00:41.646Z,-0.60
2018-02-10T19:03:09.216Z,-0.60
2018-02-10T19:05:36.778Z,-0.60
2018-02-10T19:08:04.531Z,-0.60
2018-02-10T19:10:32.852Z,-0.60
2018-02-10T19:13:00.426Z,-0.60
2018-02-10T19:15:27.987Z,-0.60
2018-02-10T19:17:56.183Z,-0.60
2018-02-10T19:20:23.735Z,-0.60
2018-02-10T19:22:51.288Z,-0.50
2018-02-10T19:25:18.876Z,-0.50
2018-02-10T19:27:46.429Z,-0.50
2018-02-10T19:30:14.767Z,-0.50
2018-02-10T19:32:42.311Z,-0.50
2018-02-10T19:35:10.643Z,-0.40
2018-02-10T19:37:38.203Z,-0.40
2018-02-10T19:40:06.540Z,-0.40
2018-02-10T19:42:34.165Z,-0.40
2018-02-10T19:45:01.880Z,-0.30
2018-02-10T19:47:30.197Z,-0.30
2018-02-10T19:49:57.780Z,-0.40
2018-02-10T19:52:26.096Z,-0.40
2018-02-10T19:54:53.702Z,-0.40
2018-02-10T19:57:21.292Z,-0.40
2018-02-10T19:59:48.946Z,-0.40
2018-02-10T20:02:16.515Z,-0.40
2018-02-10T20:04:45.092Z,-0.40
2018-02-10T20:07:12.809Z,-0.40
2018-02-10T20:09:41.117Z,-0.40
2018-02-10T20:12:09.120Z,-0.40
2018-02-10T20:14:36.772Z,-0.30
2018-02-10T20:17:04.537Z,-0.40
2018-02-10T20:19:32.100Z,-0.40
2018-02-10T20:21:59.676Z,-0.40
2018-02-10T20:24:27.222Z,-0.30
2018-02-10T20:26:55.569Z,-0.30
2018-02-10T20:29:23.124Z,-0.30
2018-02-10T20:31:50.712Z,-0.30
2018-02-10T20:34:19.020Z,-0.20
2018-02-10T20:36:46.564Z,-0.30
2018-02-10T20:39:14.140Z,-0.20
2018-02-10T20:41:41.685Z,-0.20
2018-02-10T20:44:09.253Z,-0.20
2018-02-10T20:46:36.804Z,-0.20
2018-02-10T20:49:04.373Z,-0.20
2018-02-10T20:51:31.930Z,-0.20
2018-02-10T20:53:59.499Z,-0.20
2018-02-10T20:56:27.853Z,-0.20
2018-02-10T20:58:55.462Z,-0.20
2018-02-10T21:01:23.790Z,-0.10
2018-02-10T21:03:51.331Z,-0.10
2018-02-10T21:06:18.908Z,-0.10
2018-02-10T21:08:46.455Z,-0.10
2018-02-10T21:11:14.048Z,-0.10
2018-02-10T21:13:41.591Z,-0.10
2018-02-10T21:16:09.156Z,-0.10
2018-02-10T21:18:36.713Z,-0.10
2018-02-10T21:21:04.283Z,-0.10
2018-02-10T21:23:31.827Z,-0.10
2018-02-10T21:26:00.152Z,-0.10
2018-02-10T21:28:27.701Z,-0.10
2018-02-10T21:30:56.062Z,0.00
2018-02-10T21:33:23.613Z,0.00
2018-02-10T21:35:51.162Z,0.00
2018-02-10T21:38:19.495Z,0.00
2018-02-10T21:40:47.927Z,0.00
2018-02-10T21:43:15.505Z,0.00
2018-02-10T21:45:43.143Z,0.00
2018-02-10T21:48:10.725Z,0.00
2018-02-10T21:50:38.367Z,0.00
2018-02-10T21:53:05.947Z,0.00
2018-02-10T21:55:33.539Z,0.10
2018-02-10T21:58:01.261Z,0.10
2018-02-10T22:00:29.292Z,0.10
2018-02-10T22:02:56.957Z,0.10
2018-02-10T22:05:24.500Z,0.10
2018-02-10T22:07:52.088Z,0.10
2018-02-10T22:10:19.636Z,0.10
2018-02-10T22:12:47.949Z,0.10
2018-02-10T22:15:16.276Z,0.10
2018-02-10T22:17:43.853Z,0.10
2018-02-10T22:20:11.420Z,0.10
2018-02-10T22:22:39.727Z,0.10
2018-02-10T22:25:07.287Z,0.10
2018-02-10T22:27:34.824Z,0.10
2018-02-10T22:30:02.395Z,0.10
2018-02-10T22:32:30.021Z,0.10
2018-02-10T22:34:57.644Z,0.10
2018-02-10T22:37:25.984Z,0.10
2018-02-10T22:39:53.564Z,0.10
2018-02-10T22:42:21.188Z,0.10
2018-02-10T22:44:48.861Z,0.10
2018-02-10T22:47:17.276Z,0.10
2018-02-10T22:49:44.905Z,0.10
2018-02-10T22:52:12.476Z,0.10
2018-02-10T22:54:40.812Z,0.10
2018-02-10T22:57:08.379Z,0.10
2018-02-10T22:59:35.931Z,0.10
2018-02-10T23:02:04.880Z,0.10
2018-02-10T23:04:32.575Z,0.10
2018-02-10T23:07:00.132Z,0.10
2018-02-10T23:09:28.598Z,0.20
2018-02-10T23:11:56.222Z,0.20
2018-02-10T23:14:24.232Z,0.20
2018-02-10T23:16:52.091Z,0.20
2018-02-10T23:19:19.639Z,0.20
2018-02-10T23:21:47.399Z,0.20
2018-02-10T23:24:14.997Z,0.20
2018-02-10T23:26:42.543Z,0.20
2018-02-10T23:29:10.895Z,0.20
2018-02-10T23:31:38.434Z,0.10
2018-02-10T23:34:06.175Z,0.20
2018-02-10T23:36:35.620Z,0.20
2018-02-10T23:39:03.187Z,0.10
2018-02-10T23:41:30.731Z,0.10
2018-02-10T23:43:58.320Z,0.20
2018-02-10T23:46:25.867Z,0.20
2018-02-10T23:48:53.500Z,0.20
2018-02-10T23:51:21.055Z,0.20
2018-02-10T23:53:49.388Z,0.20
2018-02-10T23:56:16.951Z,0.20
2018-02-10T23:58:45.531Z,0.20
